sensor_id;sensor_type;location;lat;lon;timestamp;temperature;humidity
15455;DHT22;21057;51.024;7.540;2024-01-16T00:01:12;1.50;99.90
15455;DHT22;21057;51.024;7.540;2024-01-16T00:03:41;1.50;99.90
15455;DHT22;21057;51.024;7.540;2024-01-16T00:06:07;1.40;99.90
15455;DHT22;21057;51.024;7.540;2024-01-16T00:08:34;1.40;99.90
15455;DHT22;21057;51.024;7.540;2024-01-16T00:11:01;1.40;99.90
15455;DHT22;21057;51.024;7.540;2024-01-16T00:13:28;1.30;99.90
15455;DHT22;21057;51.024;7.540;2024-01-16T00:15:55;1.30;99.90
15455;DHT22;21057;51.024;7.540;2024-01-16T00:18:23;1.40;99.90
15455;DHT22;21057;51.024;7.540;2024-01-16T00:20:51;1.50;99.90
15455;DHT22;21057;51.024;7.540;2024-01-16T00:23:18;1.60;99.90
15455;DHT22;21057;51.024;7.540;2024-01-16T00:25:44;1.50;99.90
15455;DHT22;21057;51.024;7.540;2024-01-16T00:28:11;1.40;99.90
15455;DHT22;21057;51.024;7.540;2024-01-16T00:30:38;1.50;99.90
15455;DHT22;21057;51.024;7.540;2024-01-16T00:33:05;1.60;99.90
15455;DHT22;21057;51.024;7.540;2024-01-16T00:35:31;1.50;99.90
15455;DHT22;21057;51.024;7.540;2024-01-16T00:38:00;1.50;99.90
15455;DHT22;21057;51.024;7.540;2024-01-16T00:40:26;1.50;99.90
15455;DHT22;21057;51.024;7.540;2024-01-16T00:42:53;1.10;99.90
15455;DHT22;21057;51.024;7.540;2024-01-16T00:45:20;1.00;99.90
15455;DHT22;21057;51.024;7.540;2024-01-16T00:47:47;0.90;99.90
15455;DHT22;21057;51.024;7.540;2024-01-16T00:50:14;0.80;99.90
15455;DHT22;21057;51.024;7.540;2024-01-16T00:52:41;1.10;99.90
15455;DHT22;21057;51.024;7.540;2024-01-16T00:55:09;1.20;99.90
15455;DHT22;21057;51.024;7.540;2024-01-16T00:57:36;1.20;99.90
15455;DHT22;21057;51.024;7.540;2024-01-16T01:00:04;1.30;99.90
15455;DHT22;21057;51.024;7.540;2024-01-16T01:02:31;1.20;99.90
15455;DHT22;21057;51.024;7.540;2024-01-16T01:04:58;1.30;99.90
15455;DHT22;21057;51.024;7.540;2024-01-16T01:07:24;1.60;99.90
15455;DHT22;21057;51.024;7.540;2024-01-16T01:09:52;1.80;99.90
15455;DHT22;21057;51.024;7.540;2024-01-16T01:12:20;1.80;99.90
15455;DHT22;21057;51.024;7.540;2024-01-16T01:14:48;1.70;99.90
15455;DHT22;21057;51.024;7.540;2024-01-16T01:17:15;1.50;99.90
15455;DHT22;21057;51.024;7.540;2024-01-16T01:19:42;1.50;99.90
15455;DHT22;21057;51.024;7.540;2024-01-16T01:22:08;1.60;99.90
15455;DHT22;21057;51.024;7.540;2024-01-16T01:24:35;1.70;99.90
15455;DHT22;21057;51.024;7.540;2024-01-16T01:27:02;1.70;99.90
15455;DHT22;21057;51.024;7.540;2024-01-16T01:29:31;1.60;99.90
15455;DHT22;21057;51.024;7.540;2024-01-16T01:31:57;1.70;99.90
15455;DHT22;21057;51.024;7.540;2024-01-16T01:34:24;1.60;99.90
15455;DHT22;21057;51.024;7.540;2024-01-16T01:36:51;1.50;99.90
15455;DHT22;21057;51.024;7.540;2024-01-16T01:39:18;1.50;99.90
15455;DHT22;21057;51.024;7.540;2024-01-16T01:41:44;1.50;99.90
15455;DHT22;21057;51.024;7.540;2024-01-16T01:44:11;1.40;99.90
15455;DHT22;21057;51.024;7.540;2024-01-16T01:46:43;1.40;99.90
15455;DHT22;21057;51.024;7.540;2024-01-16T01:49:12;1.50;99.90
15455;DHT22;21057;51.024;7.540;2024-01-16T01:51:40;1.50;99.90
15455;DHT22;21057;51.024;7.540;2024-01-16T01:54:07;1.30;99.90
15455;DHT22;21057;51.024;7.540;2024-01-16T01:56:34;1.40;99.90
15455;DHT22;21057;51.024;7.540;2024-01-16T01:59:02;1.40;99.90
15455;DHT22;21057;51.024;7.540;2024-01-16T02:01:29;1.60;99.90
15455;DHT22;21057;51.024;7.540;2024-01-16T02:03:59;1.80;99.90
15455;DHT22;21057;51.024;7.540;2024-01-16T02:06:26;1.70;99.90
15455;DHT22;21057;51.024;7.540;2024-01-16T02:08:53;1.60;99.90
15455;DHT22;21057;51.024;7.540;2024-01-16T02:11:21;1.60;99.90
15455;DHT22;21057;51.024;7.540;2024-01-16T02:13:47;1.50;99.90
15455;DHT22;21057;51.024;7.540;2024-01-16T02:16:18;1.60;99.90
15455;DHT22;21057;51.024;7.540;2024-01-16T02:18:45;1.40;99.90
15455;DHT22;21057;51.024;7.540;2024-01-16T02:21:17;1.40;99.90
15455;DHT22;21057;51.024;7.540;2024-01-16T02:23:45;1.40;99.90
15455;DHT22;21057;51.024;7.540;2024-01-16T02:26:13;1.20;99.90
15455;DHT22;21057;51.024;7.540;2024-01-16T02:28:40;1.30;99.90
15455;DHT22;21057;51.024;7.540;2024-01-16T02:31:07;1.30;99.90
15455;DHT22;21057;51.024;7.540;2024-01-16T02:33:34;1.50;99.90
15455;DHT22;21057;51.024;7.540;2024-01-16T02:36:01;1.60;99.90
15455;DHT22;21057;51.024;7.540;2024-01-16T02:38:28;1.60;99.90
15455;DHT22;21057;51.024;7.540;2024-01-16T02:40:56;1.50;99.90
15455;DHT22;21057;51.024;7.540;2024-01-16T02:43:23;1.40;99.90
15455;DHT22;21057;51.024;7.540;2024-01-16T02:45:52;1.40;99.90
15455;DHT22;21057;51.024;7.540;2024-01-16T02:48:18;1.60;99.90
15455;DHT22;21057;51.024;7.540;2024-01-16T02:50:46;1.70;99.90
15455;DHT22;21057;51.024;7.540;2024-01-16T02:53:13;1.70;99.90
15455;DHT22;21057;51.024;7.540;2024-01-16T02:55:40;1.80;99.90
15455;DHT22;21057;51.024;7.540;2024-01-16T02:58:08;1.80;99.90
15455;DHT22;21057;51.024;7.540;2024-01-16T03:00:35;1.80;99.90
15455;DHT22;21057;51.024;7.540;2024-01-16T03:03:02;1.80;99.90
15455;DHT22;21057;51.024;7.540;2024-01-16T03:05:30;1.80;99.90
15455;DHT22;21057;51.024;7.540;2024-01-16T03:07:56;2.00;99.90
15455;DHT22;21057;51.024;7.540;2024-01-16T03:10:23;1.80;99.90
15455;DHT22;21057;51.024;7.540;2024-01-16T03:12:50;1.60;99.90
15455;DHT22;21057;51.024;7.540;2024-01-16T03:15:18;1.60;99.90
15455;DHT22;21057;51.024;7.540;2024-01-16T03:17:45;1.60;99.90
15455;DHT22;21057;51.024;7.540;2024-01-16T03:20:12;1.50;99.90
15455;DHT22;21057;51.024;7.540;2024-01-16T03:22:39;1.60;99.90
15455;DHT22;21057;51.024;7.540;2024-01-16T03:25:08;1.60;99.90
15455;DHT22;21057;51.024;7.540;2024-01-16T03:27:35;1.60;99.90
15455;DHT22;21057;51.024;7.540;2024-01-16T03:30:02;1.50;99.90
15455;DHT22;21057;51.024;7.540;2024-01-16T03:32:30;1.60;99.90
15455;DHT22;21057;51.024;7.540;2024-01-16T03:34:57;1.40;99.90
15455;DHT22;21057;51.024;7.540;2024-01-16T03:37:24;1.40;99.90
15455;DHT22;21057;51.024;7.540;2024-01-16T03:39:50;1.50;99.90
15455;DHT22;21057;51.024;7.540;2024-01-16T03:42:17;1.40;99.90
15455;DHT22;21057;51.024;7.540;2024-01-16T03:44:44;1.20;99.90
15455;DHT22;21057;51.024;7.540;2024-01-16T03:47:11;1.40;99.90
15455;DHT22;21057;51.024;7.540;2024-01-16T03:49:39;1.50;99.90
15455;DHT22;21057;51.024;7.540;2024-01-16T03:52:06;1.50;99.90
15455;DHT22;21057;51.024;7.540;2024-01-16T03:54:33;1.50;99.90
15455;DHT22;21057;51.024;7.540;2024-01-16T03:56:59;1.60;99.90
15455;DHT22;21057;51.024;7.540;2024-01-16T03:59:26;1.40;99.90
15455;DHT22;21057;51.024;7.540;2024-01-16T04:01:53;1.40;99.90
15455;DHT22;21057;51.024;7.540;2024-01-16T04:04:20;1.40;99.90
15455;DHT22;21057;51.024;7.540;2024-01-16T04:06:49;1.50;99.90
15455;DHT22;21057;51.024;7.540;2024-01-16T04:09:16;1.30;99.90
15455;DHT22;21057;51.024;7.540;2024-01-16T04:11:43;1.20;99.90
15455;DHT22;21057;51.024;7.540;2024-01-16T04:14:10;1.20;99.90
15455;DHT22;21057;51.024;7.540;2024-01-16T04:16:37;1.30;99.90
15455;DHT22;21057;51.024;7.540;2024-01-16T04:19:04;1.40;99.90
15455;DHT22;21057;51.024;7.540;2024-01-16T04:21:30;1.40;99.90
15455;DHT22;21057;51.024;7.540;2024-01-16T04:23:57;1.50;99.90
15455;DHT22;21057;51.024;7.540;2024-01-16T04:26:24;1.80;99.90
15455;DHT22;21057;51.024;7.540;2024-01-16T04:28:51;1.60;99.90
15455;DHT22;21057;51.024;7.540;2024-01-16T04:31:18;1.40;99.90
15455;DHT22;21057;51.024;7.540;2024-01-16T04:33:47;1.30;99.90
15455;DHT22;21057;51.024;7.540;2024-01-16T04:36:14;1.20;99.90
15455;DHT22;21057;51.024;7.540;2024-01-16T04:38:41;1.20;99.90
15455;DHT22;21057;51.024;7.540;2024-01-16T04:41:09;1.30;99.90
15455;DHT22;21057;51.024;7.540;2024-01-16T04:43:36;1.10;99.90
15455;DHT22;21057;51.024;7.540;2024-01-16T04:46:03;1.10;99.90
15455;DHT22;21057;51.024;7.540;2024-01-16T04:48:30;1.10;99.90
15455;DHT22;21057;51.024;7.540;2024-01-16T04:50:56;1.30;99.90
15455;DHT22;21057;51.024;7.540;2024-01-16T04:53:23;1.40;99.90
15455;DHT22;21057;51.024;7.540;2024-01-16T04:55:50;1.40;99.90
15455;DHT22;21057;51.024;7.540;2024-01-16T04:58:18;1.50;99.90
15455;DHT22;21057;51.024;7.540;2024-01-16T05:00:45;1.50;99.90
15455;DHT22;21057;51.024;7.540;2024-01-16T05:03:12;1.40;99.90
15455;DHT22;21057;51.024;7.540;2024-01-16T05:05:39;1.30;99.90
15455;DHT22;21057;51.024;7.540;2024-01-16T05:08:06;1.30;99.90
15455;DHT22;21057;51.024;7.540;2024-01-16T05:10:32;1.40;99.90
15455;DHT22;21057;51.024;7.540;2024-01-16T05:12:59;1.40;99.90
15455;DHT22;21057;51.024;7.540;2024-01-16T05:15:27;1.40;99.90
15455;DHT22;21057;51.024;7.540;2024-01-16T05:17:54;1.30;99.90
15455;DHT22;21057;51.024;7.540;2024-01-16T05:20:21;1.30;99.90
15455;DHT22;21057;51.024;7.540;2024-01-16T05:22:48;1.30;99.90
15455;DHT22;21057;51.024;7.540;2024-01-16T05:25:15;1.20;99.90
15455;DHT22;21057;51.024;7.540;2024-01-16T05:27:43;1.20;99.90
15455;DHT22;21057;51.024;7.540;2024-01-16T05:30:10;1.40;99.90
15455;DHT22;21057;51.024;7.540;2024-01-16T05:32:38;1.30;99.90
15455;DHT22;21057;51.024;7.540;2024-01-16T05:35:07;1.50;99.90
15455;DHT22;21057;51.024;7.540;2024-01-16T05:37:35;1.60;99.90
15455;DHT22;21057;51.024;7.540;2024-01-16T05:40:02;1.50;99.90
15455;DHT22;21057;51.024;7.540;2024-01-16T05:42:29;1.40;99.90
15455;DHT22;21057;51.024;7.540;2024-01-16T05:44:56;1.50;99.90
15455;DHT22;21057;51.024;7.540;2024-01-16T05:47:23;1.50;99.90
15455;DHT22;21057;51.024;7.540;2024-01-16T05:49:54;1.30;99.90
15455;DHT22;21057;51.024;7.540;2024-01-16T05:52:21;1.40;99.90
15455;DHT22;21057;51.024;7.540;2024-01-16T05:54:48;1.40;99.90
15455;DHT22;21057;51.024;7.540;2024-01-16T05:57:15;1.50;99.90
15455;DHT22;21057;51.024;7.540;2024-01-16T05:59:41;1.40;99.90
15455;DHT22;21057;51.024;7.540;2024-01-16T06:02:08;1.60;99.90
15455;DHT22;21057;51.024;7.540;2024-01-16T06:04:36;1.40;99.90
15455;DHT22;21057;51.024;7.540;2024-01-16T06:07:04;1.50;99.90
15455;DHT22;21057;51.024;7.540;2024-01-16T06:09:32;1.30;99.90
15455;DHT22;21057;51.024;7.540;2024-01-16T06:11:59;1.20;99.90
15455;DHT22;21057;51.024;7.540;2024-01-16T06:14:26;1.20;99.90
15455;DHT22;21057;51.024;7.540;2024-01-16T06:16:52;1.20;99.90
15455;DHT22;21057;51.024;7.540;2024-01-16T06:19:19;1.30;99.90
15455;DHT22;21057;51.024;7.540;2024-01-16T06:21:46;1.40;99.90
15455;DHT22;21057;51.024;7.540;2024-01-16T06:24:15;1.50;99.90
15455;DHT22;21057;51.024;7.540;2024-01-16T06:26:41;1.70;99.90
15455;DHT22;21057;51.024;7.540;2024-01-16T06:29:08;1.60;99.90
15455;DHT22;21057;51.024;7.540;2024-01-16T06:31:35;1.50;99.90
15455;DHT22;21057;51.024;7.540;2024-01-16T06:34:02;1.60;99.90
15455;DHT22;21057;51.024;7.540;2024-01-16T06:36:29;1.60;99.90
15455;DHT22;21057;51.024;7.540;2024-01-16T06:38:55;1.60;99.90
15455;DHT22;21057;51.024;7.540;2024-01-16T06:41:23;1.70;99.90
15455;DHT22;21057;51.024;7.540;2024-01-16T06:43:50;1.60;99.90
15455;DHT22;21057;51.024;7.540;2024-01-16T06:46:17;1.50;99.90
15455;DHT22;21057;51.024;7.540;2024-01-16T06:48:44;1.60;99.90
15455;DHT22;21057;51.024;7.540;2024-01-16T06:51:11;1.70;99.90
15455;DHT22;21057;51.024;7.540;2024-01-16T06:53:39;1.60;99.90
15455;DHT22;21057;51.024;7.540;2024-01-16T06:56:06;1.50;99.90
15455;DHT22;21057;51.024;7.540;2024-01-16T06:58:34;1.40;99.90
15455;DHT22;21057;51.024;7.540;2024-01-16T07:01:01;1.40;99.90
15455;DHT22;21057;51.024;7.540;2024-01-16T07:03:28;1.40;99.90
15455;DHT22;21057;51.024;7.540;2024-01-16T07:05:55;1.20;99.90
15455;DHT22;21057;51.024;7.540;2024-01-16T07:08:22;1.30;99.90
15455;DHT22;21057;51.024;7.540;2024-01-16T07:10:49;1.30;99.90
15455;DHT22;21057;51.024;7.540;2024-01-16T07:13:16;1.20;99.90
15455;DHT22;21057;51.024;7.540;2024-01-16T07:15:44;1.20;99.90
15455;DHT22;21057;51.024;7.540;2024-01-16T07:18:10;1.20;99.90
15455;DHT22;21057;51.024;7.540;2024-01-16T07:20:37;1.30;99.90
15455;DHT22;21057;51.024;7.540;2024-01-16T07:23:04;1.50;99.90
15455;DHT22;21057;51.024;7.540;2024-01-16T07:25:32;1.50;99.90
15455;DHT22;21057;51.024;7.540;2024-01-16T07:27:58;1.50;99.90
15455;DHT22;21057;51.024;7.540;2024-01-16T07:30:25;1.40;99.90
15455;DHT22;21057;51.024;7.540;2024-01-16T07:32:53;1.40;99.90
15455;DHT22;21057;51.024;7.540;2024-01-16T07:35:20;1.40;99.90
15455;DHT22;21057;51.024;7.540;2024-01-16T07:37:47;1.40;99.90
15455;DHT22;21057;51.024;7.540;2024-01-16T07:40:14;1.30;99.90
15455;DHT22;21057;51.024;7.540;2024-01-16T07:42:42;1.30;99.90
15455;DHT22;21057;51.024;7.540;2024-01-16T07:45:09;1.40;99.90
15455;DHT22;21057;51.024;7.540;2024-01-16T07:47:36;1.20;99.90
15455;DHT22;21057;51.024;7.540;2024-01-16T07:50:05;1.20;99.90
15455;DHT22;21057;51.024;7.540;2024-01-16T07:52:32;1.40;99.90
15455;DHT22;21057;51.024;7.540;2024-01-16T07:54:59;1.30;99.90
15455;DHT22;21057;51.024;7.540;2024-01-16T07:57:27;1.30;99.90
15455;DHT22;21057;51.024;7.540;2024-01-16T07:59:54;1.30;99.90
15455;DHT22;21057;51.024;7.540;2024-01-16T08:02:21;1.50;99.90
15455;DHT22;21057;51.024;7.540;2024-01-16T08:04:47;1.60;99.90
15455;DHT22;21057;51.024;7.540;2024-01-16T08:07:15;1.50;99.90
15455;DHT22;21057;51.024;7.540;2024-01-16T08:09:43;1.40;99.90
15455;DHT22;21057;51.024;7.540;2024-01-16T08:12:10;1.40;99.90
15455;DHT22;21057;51.024;7.540;2024-01-16T08:14:36;1.60;99.90
15455;DHT22;21057;51.024;7.540;2024-01-16T08:17:03;1.50;99.90
15455;DHT22;21057;51.024;7.540;2024-01-16T08:19:30;1.40;99.90
15455;DHT22;21057;51.024;7.540;2024-01-16T08:21:58;1.50;99.90
15455;DHT22;21057;51.024;7.540;2024-01-16T08:24:26;1.40;99.90
15455;DHT22;21057;51.024;7.540;2024-01-16T08:26:53;1.50;99.90
15455;DHT22;21057;51.024;7.540;2024-01-16T08:29:22;1.60;99.90
15455;DHT22;21057;51.024;7.540;2024-01-16T08:31:49;1.60;99.90
15455;DHT22;21057;51.024;7.540;2024-01-16T08:34:17;1.60;99.90
15455;DHT22;21057;51.024;7.540;2024-01-16T08:36:44;1.50;99.90
15455;DHT22;21057;51.024;7.540;2024-01-16T08:39:10;1.50;99.90
15455;DHT22;21057;51.024;7.540;2024-01-16T08:41:39;1.40;99.90
15455;DHT22;21057;51.024;7.540;2024-01-16T08:44:05;1.40;99.90
15455;DHT22;21057;51.024;7.540;2024-01-16T08:46:32;1.50;99.90
15455;DHT22;21057;51.024;7.540;2024-01-16T08:48:59;1.60;99.90
15455;DHT22;21057;51.024;7.540;2024-01-16T08:51:26;1.50;99.90
15455;DHT22;21057;51.024;7.540;2024-01-16T08:53:52;1.50;99.90
15455;DHT22;21057;51.024;7.540;2024-01-16T08:56:19;1.40;99.90
15455;DHT22;21057;51.024;7.540;2024-01-16T08:58:47;1.40;99.90
15455;DHT22;21057;51.024;7.540;2024-01-16T09:01:14;1.60;99.90
15455;DHT22;21057;51.024;7.540;2024-01-16T09:03:41;1.60;99.90
15455;DHT22;21057;51.024;7.540;2024-01-16T09:06:08;1.80;99.90
15455;DHT22;21057;51.024;7.540;2024-01-16T09:08:36;1.70;99.90
15455;DHT22;21057;51.024;7.540;2024-01-16T09:11:01;1.80;99.90
15455;DHT22;21057;51.024;7.540;2024-01-16T09:13:28;2.00;99.90
15455;DHT22;21057;51.024;7.540;2024-01-16T09:15:56;2.00;99.90
15455;DHT22;21057;51.024;7.540;2024-01-16T09:18:23;2.00;99.90
15455;DHT22;21057;51.024;7.540;2024-01-16T09:20:50;2.10;99.90
15455;DHT22;21057;51.024;7.540;2024-01-16T09:23:17;1.80;99.90
15455;DHT22;21057;51.024;7.540;2024-01-16T09:25:44;1.80;99.90
15455;DHT22;21057;51.024;7.540;2024-01-16T09:28:10;1.90;99.90
15455;DHT22;21057;51.024;7.540;2024-01-16T09:30:37;1.90;99.90
15455;DHT22;21057;51.024;7.540;2024-01-16T09:33:05;2.00;99.90
15455;DHT22;21057;51.024;7.540;2024-01-16T09:35:35;1.90;99.90
15455;DHT22;21057;51.024;7.540;2024-01-16T09:38:02;1.90;99.90
15455;DHT22;21057;51.024;7.540;2024-01-16T09:40:30;1.90;99.90
15455;DHT22;21057;51.024;7.540;2024-01-16T09:42:57;1.90;99.90
15455;DHT22;21057;51.024;7.540;2024-01-16T09:45:24;1.80;99.90
15455;DHT22;21057;51.024;7.540;2024-01-16T09:47:53;2.00;99.90
15455;DHT22;21057;51.024;7.540;2024-01-16T09:50:22;2.20;99.90
15455;DHT22;21057;51.024;7.540;2024-01-16T09:52:49;2.30;99.90
15455;DHT22;21057;51.024;7.540;2024-01-16T09:55:16;2.30;99.90
15455;DHT22;21057;51.024;7.540;2024-01-16T09:57:45;2.30;99.90
15455;DHT22;21057;51.024;7.540;2024-01-16T10:00:13;2.30;99.90
15455;DHT22;21057;51.024;7.540;2024-01-16T10:02:40;2.20;99.90
15455;DHT22;21057;51.024;7.540;2024-01-16T10:05:07;2.30;99.90
15455;DHT22;21057;51.024;7.540;2024-01-16T10:07:37;2.20;99.90
15455;DHT22;21057;51.024;7.540;2024-01-16T10:10:05;2.40;99.90
15455;DHT22;21057;51.024;7.540;2024-01-16T10:12:32;2.40;99.90
15455;DHT22;21057;51.024;7.540;2024-01-16T10:14:59;2.10;99.90
15455;DHT22;21057;51.024;7.540;2024-01-16T10:17:36;2.10;99.90
15455;DHT22;21057;51.024;7.540;2024-01-16T10:20:04;2.00;99.90
15455;DHT22;21057;51.024;7.540;2024-01-16T10:22:31;1.90;99.90
15455;DHT22;21057;51.024;7.540;2024-01-16T10:25:06;1.80;99.90
15455;DHT22;21057;51.024;7.540;2024-01-16T10:27:34;1.80;99.90
15455;DHT22;21057;51.024;7.540;2024-01-16T10:30:02;2.00;99.90
15455;DHT22;21057;51.024;7.540;2024-01-16T10:32:30;1.70;99.90
15455;DHT22;21057;51.024;7.540;2024-01-16T10:35:08;1.50;99.90
15455;DHT22;21057;51.024;7.540;2024-01-16T10:37:43;1.60;99.90
15455;DHT22;21057;51.024;7.540;2024-01-16T10:40:15;2.00;99.90
15455;DHT22;21057;51.024;7.540;2024-01-16T10:42:42;2.00;99.90
15455;DHT22;21057;51.024;7.540;2024-01-16T10:45:16;2.20;99.90
15455;DHT22;21057;51.024;7.540;2024-01-16T10:47:44;2.20;99.90
15455;DHT22;21057;51.024;7.540;2024-01-16T10:50:11;1.90;99.90
15455;DHT22;21057;51.024;7.540;2024-01-16T10:52:44;2.00;99.90
15455;DHT22;21057;51.024;7.540;2024-01-16T10:55:21;1.80;99.90
15455;DHT22;21057;51.024;7.540;2024-01-16T10:57:49;1.80;99.90
15455;DHT22;21057;51.024;7.540;2024-01-16T11:00:18;2.00;99.90
15455;DHT22;21057;51.024;7.540;2024-01-16T11:02:49;1.80;99.90
15455;DHT22;21057;51.024;7.540;2024-01-16T11:05:17;1.70;99.90
15455;DHT22;21057;51.024;7.540;2024-01-16T11:07:44;2.00;99.90
15455;DHT22;21057;51.024;7.540;2024-01-16T11:10:11;2.10;99.90
15455;DHT22;21057;51.024;7.540;2024-01-16T11:12:40;2.20;99.90
15455;DHT22;21057;51.024;7.540;2024-01-16T11:15:10;2.40;99.90
15455;DHT22;21057;51.024;7.540;2024-01-16T11:17:38;2.40;99.90
15455;DHT22;21057;51.024;7.540;2024-01-16T11:20:09;2.80;99.90
15455;DHT22;21057;51.024;7.540;2024-01-16T11:22:37;3.00;99.90
15455;DHT22;21057;51.024;7.540;2024-01-16T11:25:08;3.30;99.90
15455;DHT22;21057;51.024;7.540;2024-01-16T11:27:36;3.30;99.90
15455;DHT22;21057;51.024;7.540;2024-01-16T11:30:05;3.30;99.90
15455;DHT22;21057;51.024;7.540;2024-01-16T11:32:33;3.50;99.90
15455;DHT22;21057;51.024;7.540;2024-01-16T11:35:01;3.60;99.90
15455;DHT22;21057;51.024;7.540;2024-01-16T11:37:28;3.80;99.90
15455;DHT22;21057;51.024;7.540;2024-01-16T11:40:23;3.80;99.90
15455;DHT22;21057;51.024;7.540;2024-01-16T11:42:52;4.00;99.90
15455;DHT22;21057;51.024;7.540;2024-01-16T11:45:49;4.00;99.90
15455;DHT22;21057;51.024;7.540;2024-01-16T11:48:19;3.80;99.90
15455;DHT22;21057;51.024;7.540;2024-01-16T11:50:47;3.20;99.90
15455;DHT22;21057;51.024;7.540;2024-01-16T11:53:33;3.00;99.90
15455;DHT22;21057;51.024;7.540;2024-01-16T11:56:36;2.70;99.90
15455;DHT22;21057;51.024;7.540;2024-01-16T11:59:16;2.80;99.90
15455;DHT22;21057;51.024;7.540;2024-01-16T12:01:50;2.70;99.90
15455;DHT22;21057;51.024;7.540;2024-01-16T12:04:18;2.70;99.90
15455;DHT22;21057;51.024;7.540;2024-01-16T12:06:56;2.60;99.90
15455;DHT22;21057;51.024;7.540;2024-01-16T12:09:26;2.80;99.90
15455;DHT22;21057;51.024;7.540;2024-01-16T12:11:56;2.80;99.90
15455;DHT22;21057;51.024;7.540;2024-01-16T12:14:22;2.80;99.90
15455;DHT22;21057;51.024;7.540;2024-01-16T12:16:51;2.80;99.90
15455;DHT22;21057;51.024;7.540;2024-01-16T12:19:17;3.00;99.90
15455;DHT22;21057;51.024;7.540;2024-01-16T12:21:45;3.30;99.90
15455;DHT22;21057;51.024;7.540;2024-01-16T12:24:12;3.30;99.90
15455;DHT22;21057;51.024;7.540;2024-01-16T12:26:39;3.60;99.90
15455;DHT22;21057;51.024;7.540;2024-01-16T12:29:07;3.70;99.90
15455;DHT22;21057;51.024;7.540;2024-01-16T12:31:33;4.20;99.90
15455;DHT22;21057;51.024;7.540;2024-01-16T12:34:08;4.00;99.90
15455;DHT22;21057;51.024;7.540;2024-01-16T12:36:36;3.80;99.90
15455;DHT22;21057;51.024;7.540;2024-01-16T12:39:03;4.00;99.90
15455;DHT22;21057;51.024;7.540;2024-01-16T12:41:34;3.60;99.90
15455;DHT22;21057;51.024;7.540;2024-01-16T12:44:03;3.40;99.90
15455;DHT22;21057;51.024;7.540;2024-01-16T12:46:30;3.20;99.90
15455;DHT22;21057;51.024;7.540;2024-01-16T12:49:01;3.20;99.90
15455;DHT22;21057;51.024;7.540;2024-01-16T12:51:29;3.40;99.90
15455;DHT22;21057;51.024;7.540;2024-01-16T12:54:10;3.60;99.90
15455;DHT22;21057;51.024;7.540;2024-01-16T12:56:38;3.70;99.90
15455;DHT22;21057;51.024;7.540;2024-01-16T12:59:09;3.90;99.90
15455;DHT22;21057;51.024;7.540;2024-01-16T13:01:39;3.90;99.90
15455;DHT22;21057;51.024;7.540;2024-01-16T13:04:08;3.90;99.90
15455;DHT22;21057;51.024;7.540;2024-01-16T13:06:37;3.80;99.90
15455;DHT22;21057;51.024;7.540;2024-01-16T13:09:05;3.90;99.90
15455;DHT22;21057;51.024;7.540;2024-01-16T13:11:45;3.80;99.90
15455;DHT22;21057;51.024;7.540;2024-01-16T13:14:12;3.60;99.90
15455;DHT22;21057;51.024;7.540;2024-01-16T13:16:39;3.60;99.90
15455;DHT22;21057;51.024;7.540;2024-01-16T13:19:06;3.60;99.90
15455;DHT22;21057;51.024;7.540;2024-01-16T13:21:36;3.60;99.90
15455;DHT22;21057;51.024;7.540;2024-01-16T13:24:04;3.40;99.90
15455;DHT22;21057;51.024;7.540;2024-01-16T13:26:31;3.50;99.90
15455;DHT22;21057;51.024;7.540;2024-01-16T13:28:58;3.60;99.90
15455;DHT22;21057;51.024;7.540;2024-01-16T13:31:25;3.60;99.90
15455;DHT22;21057;51.024;7.540;2024-01-16T13:33:52;3.60;99.90
15455;DHT22;21057;51.024;7.540;2024-01-16T13:36:19;3.90;99.90
15455;DHT22;21057;51.024;7.540;2024-01-16T13:38:48;3.80;99.90
15455;DHT22;21057;51.024;7.540;2024-01-16T13:41:15;3.80;99.90
15455;DHT22;21057;51.024;7.540;2024-01-16T13:43:42;3.90;99.90
15455;DHT22;21057;51.024;7.540;2024-01-16T13:46:09;3.80;99.90
15455;DHT22;21057;51.024;7.540;2024-01-16T13:48:36;3.90;99.90
15455;DHT22;21057;51.024;7.540;2024-01-16T13:51:03;3.90;99.90
15455;DHT22;21057;51.024;7.540;2024-01-16T13:53:30;3.40;99.90
15455;DHT22;21057;51.024;7.540;2024-01-16T13:55:58;3.20;99.90
15455;DHT22;21057;51.024;7.540;2024-01-16T13:58:26;3.10;99.90
15455;DHT22;21057;51.024;7.540;2024-01-16T14:00:53;2.80;99.90
15455;DHT22;21057;51.024;7.540;2024-01-16T14:03:20;2.40;99.90
15455;DHT22;21057;51.024;7.540;2024-01-16T14:05:47;2.30;99.90
15455;DHT22;21057;51.024;7.540;2024-01-16T14:08:14;2.20;99.90
15455;DHT22;21057;51.024;7.540;2024-01-16T14:10:40;2.10;99.90
15455;DHT22;21057;51.024;7.540;2024-01-16T14:13:09;2.20;99.90
15455;DHT22;21057;51.024;7.540;2024-01-16T14:15:36;2.30;99.90
15455;DHT22;21057;51.024;7.540;2024-01-16T14:18:03;2.30;99.90
15455;DHT22;21057;51.024;7.540;2024-01-16T14:20:30;2.40;99.90
15455;DHT22;21057;51.024;7.540;2024-01-16T14:22:57;2.40;99.90
15455;DHT22;21057;51.024;7.540;2024-01-16T14:25:24;2.50;99.90
15455;DHT22;21057;51.024;7.540;2024-01-16T14:27:56;2.60;99.90
15455;DHT22;21057;51.024;7.540;2024-01-16T14:30:25;2.60;99.90
15455;DHT22;21057;51.024;7.540;2024-01-16T14:32:52;2.60;99.90
15455;DHT22;21057;51.024;7.540;2024-01-16T14:35:19;2.80;99.90
15455;DHT22;21057;51.024;7.540;2024-01-16T14:37:46;2.70;99.90
15455;DHT22;21057;51.024;7.540;2024-01-16T14:40:13;2.70;99.90
15455;DHT22;21057;51.024;7.540;2024-01-16T14:42:45;2.70;99.90
15455;DHT22;21057;51.024;7.540;2024-01-16T14:45:13;2.60;99.90
15455;DHT22;21057;51.024;7.540;2024-01-16T14:47:41;2.40;99.90
15455;DHT22;21057;51.024;7.540;2024-01-16T14:50:10;2.40;99.90
15455;DHT22;21057;51.024;7.540;2024-01-16T14:52:38;2.30;99.90
15455;DHT22;21057;51.024;7.540;2024-01-16T14:55:06;2.20;99.90
15455;DHT22;21057;51.024;7.540;2024-01-16T14:57:33;2.10;99.90
15455;DHT22;21057;51.024;7.540;2024-01-16T15:00:08;2.00;99.90
15455;DHT22;21057;51.024;7.540;2024-01-16T15:02:42;1.80;99.90
15455;DHT22;21057;51.024;7.540;2024-01-16T15:05:09;1.80;99.90
15455;DHT22;21057;51.024;7.540;2024-01-16T15:07:38;1.70;99.90
15455;DHT22;21057;51.024;7.540;2024-01-16T15:10:06;1.70;99.90
15455;DHT22;21057;51.024;7.540;2024-01-16T15:12:35;1.70;99.90
15455;DHT22;21057;51.024;7.540;2024-01-16T15:15:01;1.60;99.90
15455;DHT22;21057;51.024;7.540;2024-01-16T15:17:29;1.60;99.90
15455;DHT22;21057;51.024;7.540;2024-01-16T15:19:57;1.70;99.90
15455;DHT22;21057;51.024;7.540;2024-01-16T15:22:24;1.90;99.90
15455;DHT22;21057;51.024;7.540;2024-01-16T15:24:50;1.90;99.90
15455;DHT22;21057;51.024;7.540;2024-01-16T15:27:17;1.90;99.90
15455;DHT22;21057;51.024;7.540;2024-01-16T15:29:45;1.80;99.90
15455;DHT22;21057;51.024;7.540;2024-01-16T15:32:12;1.60;99.90
15455;DHT22;21057;51.024;7.540;2024-01-16T15:34:39;1.40;99.90
15455;DHT22;21057;51.024;7.540;2024-01-16T15:37:07;1.40;99.90
15455;DHT22;21057;51.024;7.540;2024-01-16T15:39:34;1.20;99.90
15455;DHT22;21057;51.024;7.540;2024-01-16T15:42:01;1.20;99.90
15455;DHT22;21057;51.024;7.540;2024-01-16T15:44:28;1.20;99.90
15455;DHT22;21057;51.024;7.540;2024-01-16T15:46:58;1.30;99.90
15455;DHT22;21057;51.024;7.540;2024-01-16T15:49:25;1.20;99.90